Orbital elements of FENGYUN 1C DEB
| Launched | 9 May 1999 |
| Flight ended | – |
| Launch site | Taiyuan Space Center, PRC |
| Owner | People's Republic of China |
| NORAD ID | 29806 |
| Date fetched |
Epoch osculation |
Inc. [°] |
Ecc. | RA asc node [hr] |
Arg Peri. [°] |
Mean anom [°] |
Mean motion [rev/day] |
Abs. mag |
| Date fetched |
Epoch osculation |
Inc. [°] |
Ecc. | RA asc node [hr] |
Arg Peri. [°] |
Mean anom [°] |
Mean motion [rev/day] |
Abs. mag |
| 2026 May 08 17:57 | 2026 May 05 12:25:38 | 98.7040 | 0.00281 | 9.4818 | 200.7026 | 312.8893 | 14.12296 | – |
| 2026 May 07 17:58 | 2026 May 05 12:25:38 | 98.7040 | 0.00281 | 9.4818 | 200.7026 | 312.8893 | 14.12296 | – |
| 2026 May 06 17:57 | 2026 May 05 12:25:38 | 98.7040 | 0.00281 | 9.4818 | 200.7026 | 312.8893 | 14.12296 | – |
| 2026 May 05 17:57 | 2026 May 05 12:25:38 | 98.7040 | 0.00281 | 9.4818 | 200.7026 | 312.8893 | 14.12296 | – |
| 2026 May 04 17:57 | 2026 Apr 30 07:38:01 | 98.7044 | 0.00277 | 9.1451 | 215.7921 | 312.8893 | 14.12296 | – |
| 2026 May 03 17:57 | 2026 Apr 30 07:38:01 | 98.7044 | 0.00277 | 9.1451 | 215.7921 | 312.8893 | 14.12296 | – |
| 2026 May 02 17:57 | 2026 Apr 30 07:38:01 | 98.7044 | 0.00277 | 9.1451 | 215.7921 | 312.8893 | 14.12296 | – |
| 2026 May 01 17:56 | 2026 Apr 30 07:38:01 | 98.7044 | 0.00277 | 9.1451 | 215.7921 | 312.8893 | 14.12296 | – |
| 2026 Apr 30 17:56 | 2026 Apr 30 07:38:01 | 98.7044 | 0.00277 | 9.1451 | 215.7921 | 312.8893 | 14.12296 | – |
| 2026 Apr 29 17:57 | 2026 Apr 24 00:23:21 | 98.7051 | 0.00274 | 8.7369 | 234.3503 | 312.8893 | 14.12296 | – |
| 2026 Apr 28 17:56 | 2026 Apr 24 00:23:21 | 98.7051 | 0.00274 | 8.7369 | 234.3503 | 312.8893 | 14.12296 | – |
| 2026 Apr 27 17:58 | 2026 Apr 24 00:23:21 | 98.7051 | 0.00274 | 8.7369 | 234.3503 | 312.8893 | 14.12296 | – |
| 2026 Apr 26 17:58 | 2026 Apr 24 00:23:21 | 98.7051 | 0.00274 | 8.7369 | 234.3503 | 312.8893 | 14.12296 | – |
| 2026 Apr 25 17:58 | 2026 Apr 24 00:23:21 | 98.7051 | 0.00274 | 8.7369 | 234.3503 | 312.8893 | 14.12296 | – |
| 2026 Apr 24 17:59 | 2026 Apr 24 00:23:21 | 98.7051 | 0.00274 | 8.7369 | 234.3503 | 312.8893 | 14.12296 | – |
| 2026 Apr 23 17:57 | 2026 Apr 19 08:05:39 | 98.7056 | 0.00272 | 8.4338 | 248.2773 | 312.8893 | 14.12296 | – |
| 2026 Apr 22 17:57 | 2026 Apr 19 08:05:39 | 98.7056 | 0.00272 | 8.4338 | 248.2773 | 312.8893 | 14.12296 | – |
| 2026 Apr 21 17:57 | 2026 Apr 19 08:05:39 | 98.7056 | 0.00272 | 8.4338 | 248.2773 | 312.8893 | 14.12296 | – |
| 2026 Apr 20 17:57 | 2026 Apr 19 08:05:39 | 98.7056 | 0.00272 | 8.4338 | 248.2773 | 312.8893 | 14.12296 | – |
| 2026 Apr 19 17:58 | 2026 Apr 19 08:05:39 | 98.7056 | 0.00272 | 8.4338 | 248.2773 | 312.8893 | 14.12296 | – |
| 2026 Apr 18 17:56 | 2026 Apr 13 07:34:21 | 98.7060 | 0.00270 | 8.0438 | 266.3585 | 312.8893 | 14.12296 | – |
| 2026 Apr 16 17:57 | 2026 Apr 13 07:34:21 | 98.7060 | 0.00270 | 8.0438 | 266.3585 | 312.8893 | 14.12296 | – |
| 2026 Apr 14 17:57 | 2026 Apr 13 07:34:21 | 98.7060 | 0.00270 | 8.0438 | 266.3585 | 312.8893 | 14.12296 | – |
| 2026 Apr 13 17:57 | 2026 Apr 13 07:34:21 | 98.7060 | 0.00270 | 8.0438 | 266.3585 | 312.8893 | 14.12296 | – |
| 2026 Apr 12 17:57 | 2026 Apr 07 22:36:09 | 98.7066 | 0.00271 | 7.6957 | 282.2852 | 312.8893 | 14.12296 | – |
| 2026 Apr 11 17:57 | 2026 Apr 07 22:36:09 | 98.7066 | 0.00271 | 7.6957 | 282.2852 | 312.8893 | 14.12296 | – |